createdAt,value
2022-11-24T00:02:18.631Z,7.84
2022-11-24T00:04:45.435Z,7.87
2022-11-24T00:07:12.190Z,7.93
2022-11-24T00:09:38.987Z,7.92
2022-11-24T00:12:07.108Z,7.92
2022-11-24T00:14:33.918Z,7.88
2022-11-24T00:17:00.756Z,7.94
2022-11-24T00:19:27.459Z,7.94
2022-11-24T00:21:54.157Z,7.91
2022-11-24T00:24:20.970Z,7.93
2022-11-24T00:26:47.646Z,7.96
2022-11-24T00:29:15.896Z,7.96
2022-11-24T00:31:42.787Z,7.96
2022-11-24T00:34:12.394Z,7.98
2022-11-24T00:36:39.534Z,7.99
2022-11-24T00:39:07.810Z,7.98
2022-11-24T00:41:35.008Z,7.99
2022-11-24T00:44:01.833Z,7.98
2022-11-24T00:46:29.996Z,7.96
2022-11-24T00:48:57.420Z,7.95
2022-11-24T00:51:25.738Z,7.91
2022-11-24T00:53:52.637Z,7.90
2022-11-24T00:56:19.530Z,7.94
2022-11-24T00:58:46.237Z,7.91
2022-11-24T01:01:15.030Z,7.89
2022-11-24T01:03:43.627Z,7.88
2022-11-24T01:06:12.487Z,7.89
2022-11-24T01:08:39.960Z,7.89
2022-11-24T01:11:08.823Z,7.89
2022-11-24T01:13:35.627Z,7.91
2022-11-24T01:16:02.323Z,7.91
2022-11-24T01:18:29.268Z,7.93
2022-11-24T01:20:57.271Z,7.97
2022-11-24T01:23:24.092Z,7.99
2022-11-24T01:25:50.813Z,8.03
2022-11-24T01:28:17.488Z,7.99
2022-11-24T01:30:44.205Z,7.93
2022-11-24T01:33:10.981Z,7.96
2022-11-24T01:35:37.661Z,7.89
2022-11-24T01:38:05.687Z,7.85
2022-11-24T01:40:32.327Z,7.85
2022-11-24T01:42:59.083Z,7.86
2022-11-24T01:45:34.841Z,7.86
2022-11-24T01:48:11.170Z,7.95
2022-11-24T01:50:38.023Z,7.99
2022-11-24T01:53:06.054Z,8.00
2022-11-24T01:55:39.558Z,8.04
2022-11-24T01:58:13.052Z,8.03
2022-11-24T02:00:43.507Z,8.02
2022-11-24T02:03:13.477Z,8.02
2022-11-24T02:05:45.876Z,8.04
2022-11-24T02:08:21.047Z,8.05
2022-11-24T02:10:48.499Z,8.05
2022-11-24T02:13:15.535Z,8.07
2022-11-24T02:15:42.662Z,8.11
2022-11-24T02:18:09.545Z,8.11
2022-11-24T02:20:36.340Z,8.10
2022-11-24T02:23:09.431Z,8.08
2022-11-24T02:25:50.281Z,8.09
2022-11-24T02:28:21.113Z,8.07
2022-11-24T02:30:48.507Z,8.03
2022-11-24T02:33:15.260Z,8.03
2022-11-24T02:35:42.078Z,8.04
2022-11-24T02:38:11.350Z,8.10
2022-11-24T02:40:38.122Z,8.12
2022-11-24T02:43:09.622Z,8.19
2022-11-24T02:45:37.752Z,8.24
2022-11-24T02:48:05.019Z,8.31
2022-11-24T02:50:31.752Z,8.33
2022-11-24T02:52:58.428Z,8.27
2022-11-24T02:55:25.248Z,8.41
2022-11-24T02:57:51.951Z,8.48
2022-11-24T03:00:19.175Z,8.49
2022-11-24T03:02:47.235Z,8.44
2022-11-24T03:05:14.197Z,8.44
2022-11-24T03:07:41.220Z,8.45
2022-11-24T03:10:08.593Z,8.48
2022-11-24T03:12:35.207Z,8.51
2022-11-24T03:15:02.077Z,8.58
2022-11-24T03:17:28.991Z,8.65
2022-11-24T03:20:00.194Z,8.73
2022-11-24T03:22:30.880Z,8.77
2022-11-24T03:24:57.550Z,8.79
2022-11-24T03:27:24.243Z,8.81
2022-11-24T03:29:50.862Z,8.84
2022-11-24T03:32:17.677Z,8.81
2022-11-24T03:34:44.428Z,8.81
2022-11-24T03:37:12.514Z,8.84
2022-11-24T03:39:39.118Z,8.77
2022-11-24T03:42:06.095Z,8.81
2022-11-24T03:44:33.152Z,8.79
2022-11-24T03:47:00.112Z,8.82
2022-11-24T03:49:26.848Z,8.81
2022-11-24T03:51:53.696Z,8.89
2022-11-24T03:54:21.779Z,8.87
2022-11-24T03:56:48.656Z,8.98
2022-11-24T03:59:15.362Z,9.00
2022-11-24T04:01:42.286Z,9.03
2022-11-24T04:04:10.842Z,8.98
2022-11-24T04:06:37.609Z,8.99
2022-11-24T04:09:05.056Z,8.95
2022-11-24T04:11:33.202Z,8.94
2022-11-24T04:13:59.873Z,8.94
2022-11-24T04:16:26.556Z,8.96
2022-11-24T04:18:53.379Z,8.97
2022-11-24T04:21:21.045Z,8.97
2022-11-24T04:23:47.681Z,8.96
2022-11-24T04:26:14.550Z,8.95
2022-11-24T04:28:42.451Z,8.90
2022-11-24T04:31:09.204Z,8.88
2022-11-24T04:33:35.778Z,8.84
2022-11-24T04:36:02.422Z,8.79
2022-11-24T04:39:20.159Z,8.72
2022-11-24T04:41:15.763Z,8.68
2022-11-24T04:43:43.688Z,8.69
2022-11-24T04:46:12.210Z,8.65
2022-11-24T04:48:38.849Z,8.63
2022-11-24T04:51:06.083Z,8.60
2022-11-24T04:53:32.653Z,8.61
2022-11-24T04:55:59.396Z,8.72
2022-11-24T04:58:26.069Z,8.69
2022-11-24T05:00:54.130Z,8.68
2022-11-24T05:03:20.773Z,8.63
2022-11-24T05:05:47.392Z,8.62
2022-11-24T05:08:14.072Z,8.63
2022-11-24T05:10:40.771Z,8.64
2022-11-24T05:13:10.640Z,8.57
2022-11-24T05:15:38.840Z,8.54
2022-11-24T05:18:07.879Z,8.58
2022-11-24T05:20:37.593Z,8.62
2022-11-24T05:23:05.421Z,8.68
2022-11-24T05:25:32.693Z,8.67
2022-11-24T05:28:00.305Z,8.63
2022-11-24T05:30:27.043Z,8.54
2022-11-24T05:32:53.617Z,8.47
2022-11-24T05:35:22.106Z,8.46
2022-11-24T05:37:48.760Z,8.41
2022-11-24T05:40:16.039Z,8.39
2022-11-24T05:42:47.356Z,8.40
2022-11-24T05:45:17.371Z,8.32
2022-11-24T05:47:44.149Z,8.30
2022-11-24T05:50:12.613Z,8.25
2022-11-24T05:52:40.771Z,8.23
2022-11-24T05:55:08.833Z,8.15
2022-11-24T05:57:35.747Z,8.08
2022-11-24T06:00:03.841Z,8.03
2022-11-24T06:02:39.108Z,7.96
2022-11-24T06:05:06.187Z,7.84
2022-11-24T06:07:32.781Z,7.82
2022-11-24T06:10:00.840Z,7.76
2022-11-24T06:12:27.506Z,7.75
2022-11-24T06:14:54.115Z,7.76
2022-11-24T06:17:20.627Z,7.83
2022-11-24T06:19:47.318Z,7.85
2022-11-24T06:22:13.989Z,7.93
2022-11-24T06:24:40.621Z,8.01
2022-11-24T06:27:08.584Z,8.10
2022-11-24T06:29:35.343Z,8.20
2022-11-24T06:32:02.169Z,8.25
2022-11-24T06:34:28.834Z,8.32
2022-11-24T06:36:55.387Z,8.36
2022-11-24T06:39:22.015Z,8.42
2022-11-24T06:41:49.664Z,8.47
2022-11-24T06:44:17.869Z,8.50
2022-11-24T06:46:44.589Z,8.54
2022-11-24T06:49:11.341Z,8.57
2022-11-24T06:51:38.004Z,8.58
2022-11-24T06:54:06.659Z,8.59
2022-11-24T06:56:33.254Z,8.59
2022-11-24T06:59:00.097Z,8.59
2022-11-24T07:01:29.698Z,8.58
2022-11-24T07:03:56.886Z,8.53
2022-11-24T07:06:24.815Z,8.50
2022-11-24T07:08:51.812Z,8.49
2022-11-24T07:11:19.988Z,8.51
2022-11-24T07:13:47.316Z,8.54
2022-11-24T07:16:16.327Z,8.50
2022-11-24T07:18:45.743Z,8.43
2022-11-24T07:21:12.317Z,8.31
2022-11-24T07:23:39.647Z,8.21
2022-11-24T07:26:07.363Z,8.14
2022-11-24T07:28:34.831Z,8.04
2022-11-24T07:31:05.287Z,8.00
2022-11-24T07:33:31.880Z,8.01
2022-11-24T07:36:01.411Z,8.07
2022-11-24T07:38:29.001Z,8.10
2022-11-24T07:40:59.903Z,8.12
2022-11-24T07:43:26.615Z,8.19
2022-11-24T07:45:53.461Z,8.26
2022-11-24T07:48:20.210Z,8.34
2022-11-24T07:50:51.133Z,8.41
2022-11-24T07:53:22.080Z,8.47
2022-11-24T07:55:53.514Z,8.51
2022-11-24T07:58:20.155Z,8.52
2022-11-24T08:00:46.808Z,8.51
2022-11-24T08:03:13.545Z,8.43
2022-11-24T08:06:00.669Z,8.36
2022-11-24T08:08:28.280Z,8.29
2022-11-24T08:10:54.862Z,8.25
2022-11-24T08:13:21.478Z,8.30
2022-11-24T08:15:48.192Z,8.34
2022-11-24T08:18:14.803Z,8.30
2022-11-24T08:20:41.328Z,8.23
2022-11-24T08:23:08.193Z,8.16
2022-11-24T08:25:36.159Z,8.15
2022-11-24T08:28:04.112Z,8.15
2022-11-24T08:30:31.138Z,8.16
2022-11-24T08:32:58.745Z,8.18
2022-11-24T08:35:25.395Z,8.18
2022-11-24T08:37:52.200Z,8.21
2022-11-24T08:40:18.952Z,8.25
2022-11-24T08:42:46.992Z,8.38
2022-11-24T08:45:21.073Z,8.54
2022-11-24T08:47:51.804Z,8.71
2022-11-24T08:50:18.407Z,8.78
2022-11-24T08:52:45.010Z,8.84
2022-11-24T08:55:11.736Z,8.78
2022-11-24T08:57:38.371Z,8.74
2022-11-24T09:00:07.504Z,8.70
2022-11-24T09:02:34.121Z,8.68
2022-11-24T09:05:00.798Z,8.69
2022-11-24T09:07:27.491Z,8.73
2022-11-24T09:09:54.159Z,8.74
2022-11-24T09:12:20.957Z,8.79
2022-11-24T09:14:47.521Z,8.81
2022-11-24T09:17:15.473Z,8.87
2022-11-24T09:19:42.160Z,8.93
2022-11-24T09:22:08.660Z,8.95
2022-11-24T09:24:35.391Z,9.04
2022-11-24T09:27:02.080Z,9.08
2022-11-24T09:29:28.656Z,9.14
2022-11-24T09:31:55.220Z,9.21
2022-11-24T09:34:23.256Z,9.27
2022-11-24T09:36:49.829Z,9.31
2022-11-24T09:39:16.429Z,9.34
2022-11-24T09:41:54.806Z,9.41
2022-11-24T09:45:05.959Z,9.51
2022-11-24T09:47:43.840Z,9.56
2022-11-24T09:50:16.278Z,9.60
2022-11-24T09:52:49.701Z,9.65
2022-11-24T09:55:34.867Z,9.72
2022-11-24T09:58:14.510Z,9.74
2022-11-24T10:00:41.893Z,9.75
2022-11-24T10:03:16.381Z,9.80
2022-11-24T10:05:48.527Z,9.85
2022-11-24T10:08:27.593Z,9.90
2022-11-24T10:10:57.697Z,9.93
2022-11-24T10:13:40.177Z,9.95
2022-11-24T10:16:14.478Z,9.98
2022-11-24T10:18:49.281Z,9.93
2022-11-24T10:21:47.293Z,9.97
2022-11-24T10:24:38.575Z,10.01
2022-11-24T10:27:13.799Z,10.05
2022-11-24T10:29:41.652Z,10.04
2022-11-24T10:32:14.940Z,10.05
2022-11-24T10:34:44.570Z,10.11
2022-11-24T10:37:18.174Z,10.08
2022-11-24T10:39:54.791Z,10.06
2022-11-24T10:42:28.149Z,10.11
2022-11-24T10:45:01.783Z,10.10
2022-11-24T10:47:28.759Z,10.12
2022-11-24T10:50:00.153Z,10.17
2022-11-24T10:52:29.686Z,10.15
2022-11-24T10:54:58.770Z,10.21
2022-11-24T10:57:31.494Z,10.26
2022-11-24T10:59:58.333Z,10.35
2022-11-24T11:02:42.915Z,10.36
2022-11-24T11:05:36.539Z,10.40
2022-11-24T11:08:19.686Z,10.47
2022-11-24T11:10:48.205Z,10.48
2022-11-24T11:13:26.901Z,10.49
2022-11-24T11:15:54.570Z,10.51
2022-11-24T11:18:22.268Z,10.57
2022-11-24T11:20:51.633Z,10.53
2022-11-24T11:23:26.352Z,10.63
2022-11-24T11:26:17.891Z,10.64
2022-11-24T11:28:57.711Z,10.67
2022-11-24T11:31:24.684Z,10.61
2022-11-24T11:34:07.376Z,10.68
2022-11-24T11:36:40.926Z,10.74
2022-11-24T11:39:21.804Z,10.72
2022-11-24T11:41:51.776Z,10.75
2022-11-24T11:44:29.914Z,10.73
2022-11-24T11:46:58.981Z,10.73
2022-11-24T11:49:25.894Z,10.71
2022-11-24T11:52:07.729Z,10.73
2022-11-24T11:54:55.574Z,10.77
2022-11-24T11:57:33.016Z,10.75
2022-11-24T12:00:10.901Z,10.76
2022-11-24T12:03:07.872Z,10.82
2022-11-24T12:05:47.313Z,10.82
2022-11-24T12:08:27.098Z,10.88
2022-11-24T12:11:02.069Z,10.89
2022-11-24T12:13:54.484Z,10.91
2022-11-24T12:16:30.932Z,10.93
2022-11-24T12:19:15.716Z,10.99
2022-11-24T12:21:52.031Z,10.95
2022-11-24T12:24:30.600Z,10.97
2022-11-24T12:27:03.305Z,11.02
2022-11-24T12:29:57.957Z,11.05
2022-11-24T12:32:45.834Z,11.06
2022-11-24T12:35:22.189Z,11.12
2022-11-24T12:38:02.237Z,11.10
2022-11-24T12:40:46.405Z,11.08
2022-11-24T12:43:21.298Z,11.03
2022-11-24T12:45:57.703Z,11.08
2022-11-24T12:48:38.827Z,11.16
2022-11-24T12:51:14.820Z,11.13
2022-11-24T12:53:43.374Z,11.11
2022-11-24T12:56:13.069Z,11.21
2022-11-24T12:58:48.875Z,11.25
2022-11-24T13:01:25.212Z,11.28
2022-11-24T13:04:04.426Z,11.28
2022-11-24T13:06:47.453Z,11.32
2022-11-24T13:09:16.177Z,11.30
2022-11-24T13:11:44.674Z,11.31
2022-11-24T13:14:31.493Z,11.34
2022-11-24T13:17:28.053Z,11.41
2022-11-24T13:19:46.444Z,11.39
2022-11-24T13:22:22.943Z,11.42
2022-11-24T13:25:12.592Z,11.38
2022-11-24T13:27:42.135Z,11.35
2022-11-24T13:30:51.287Z,11.36
2022-11-24T13:33:30.284Z,11.35
2022-11-24T13:36:33.904Z,11.38
2022-11-24T13:39:03.123Z,11.40
2022-11-24T13:42:06.404Z,11.42
2022-11-24T13:44:47.261Z,11.40
2022-11-24T13:47:41.113Z,11.42
2022-11-24T13:50:22.867Z,11.42
2022-11-24T13:52:53.558Z,11.42
2022-11-24T13:55:30.042Z,11.47
2022-11-24T13:58:00.384Z,11.51
2022-11-24T14:00:29.594Z,11.50
2022-11-24T14:03:00.916Z,11.50
2022-11-24T14:05:35.889Z,11.48
2022-11-24T14:08:05.510Z,11.46
2022-11-24T14:10:34.654Z,11.41
2022-11-24T14:13:27.325Z,11.41
2022-11-24T14:16:02.963Z,11.36
2022-11-24T14:18:30.056Z,11.32
2022-11-24T14:20:59.418Z,11.30
2022-11-24T14:23:26.205Z,11.25
2022-11-24T14:25:53.510Z,11.15
2022-11-24T14:28:24.401Z,11.14
2022-11-24T14:30:51.726Z,11.07
2022-11-24T14:33:19.977Z,11.03
2022-11-24T14:35:52.085Z,11.02
2022-11-24T14:38:20.131Z,10.92
2022-11-24T14:40:49.569Z,10.89
2022-11-24T14:43:20.725Z,10.83
2022-11-24T14:45:50.268Z,10.78
2022-11-24T14:48:18.220Z,10.72
2022-11-24T14:50:45.157Z,10.70
2022-11-24T14:53:16.285Z,10.61
2022-11-24T14:55:44.339Z,10.49
2022-11-24T14:58:30.058Z,10.39
2022-11-24T15:01:19.586Z,10.37
2022-11-24T15:03:46.839Z,10.33
2022-11-24T15:06:18.406Z,10.28
2022-11-24T15:08:47.444Z,10.25
2022-11-24T15:11:15.817Z,10.25
2022-11-24T15:13:53.350Z,10.19
2022-11-24T15:16:22.826Z,10.13
2022-11-24T15:18:57.178Z,10.07
2022-11-24T15:21:31.590Z,10.04
2022-11-24T15:24:05.700Z,9.97
2022-11-24T15:26:40.017Z,9.97
2022-11-24T15:29:08.888Z,9.93
2022-11-24T15:31:35.687Z,9.89
2022-11-24T15:34:02.298Z,9.86
2022-11-24T15:36:28.999Z,9.78
2022-11-24T15:38:55.751Z,9.70
2022-11-24T15:41:27.569Z,9.64
2022-11-24T15:43:55.983Z,9.57
2022-11-24T15:46:22.602Z,9.47
2022-11-24T15:48:49.394Z,9.38
2022-11-24T15:51:16.169Z,9.29
2022-11-24T15:53:45.871Z,9.33
2022-11-24T15:56:22.193Z,9.32
2022-11-24T15:58:48.853Z,9.29
2022-11-24T16:01:17.109Z,9.22
2022-11-24T16:03:47.600Z,9.14
2022-11-24T16:06:24.290Z,9.06
2022-11-24T16:08:52.324Z,9.01
2022-11-24T16:11:19.005Z,8.92
2022-11-24T16:13:51.867Z,8.88
2022-11-24T16:16:22.794Z,8.80
2022-11-24T16:18:49.595Z,8.75
2022-11-24T16:21:19.596Z,8.69
2022-11-24T16:23:46.460Z,8.61
2022-11-24T16:26:13.315Z,8.56
2022-11-24T16:28:40.061Z,8.53
2022-11-24T16:31:06.810Z,8.48
2022-11-24T16:33:34.980Z,8.48
2022-11-24T16:36:01.840Z,8.48
2022-11-24T16:38:28.506Z,8.55
2022-11-24T16:40:55.587Z,8.63
2022-11-24T16:43:22.154Z,8.72
2022-11-24T16:45:59.560Z,8.74
2022-11-24T16:48:26.225Z,8.72
2022-11-24T16:50:54.317Z,8.74
2022-11-24T16:53:21.133Z,8.68
2022-11-24T16:55:56.628Z,8.65
2022-11-24T16:58:23.382Z,8.57
2022-11-24T17:00:50.053Z,8.55
2022-11-24T17:03:17.078Z,8.56
2022-11-24T17:05:44.229Z,8.51
2022-11-24T17:08:26.723Z,8.47
2022-11-24T17:11:03.170Z,8.42
2022-11-24T17:13:37.069Z,8.40
2022-11-24T17:16:25.078Z,8.30
2022-11-24T17:18:52.425Z,8.25
2022-11-24T17:21:21.098Z,8.29
2022-11-24T17:23:53.015Z,8.31
2022-11-24T17:26:19.640Z,8.40
2022-11-24T17:28:52.807Z,8.43
2022-11-24T17:34:12.632Z,8.50
2022-11-24T17:36:39.643Z,8.56
2022-11-24T17:39:09.094Z,8.57
2022-11-24T17:41:36.023Z,8.54
2022-11-24T17:44:03.214Z,8.58
2022-11-24T17:46:30.699Z,8.60
2022-11-24T17:48:57.988Z,8.59
2022-11-24T17:51:26.133Z,8.60
2022-11-24T17:53:56.037Z,8.53
2022-11-24T17:56:25.962Z,8.51
2022-11-24T17:58:53.896Z,8.52
2022-11-24T18:01:21.570Z,8.50
2022-11-24T18:03:53.175Z,8.53
2022-11-24T18:06:20.918Z,8.51
2022-11-24T18:08:47.726Z,8.52
2022-11-24T18:11:16.330Z,8.57
2022-11-24T18:14:01.131Z,8.58
2022-11-24T18:16:29.167Z,8.59
2022-11-24T18:19:07.303Z,8.61
2022-11-24T18:21:35.522Z,8.56
2022-11-24T18:24:02.181Z,8.54
2022-11-24T18:26:28.839Z,8.49
2022-11-24T18:28:56.702Z,8.49
2022-11-24T18:31:23.367Z,8.41
2022-11-24T18:33:49.973Z,8.36
2022-11-24T18:36:19.432Z,8.34
2022-11-24T18:38:45.991Z,8.29
2022-11-24T18:41:13.869Z,8.22
2022-11-24T18:43:40.747Z,8.20
2022-11-24T18:46:11.286Z,8.19
2022-11-24T18:48:37.976Z,8.14
2022-11-24T18:51:05.243Z,8.19
2022-11-24T18:53:31.843Z,8.16
2022-11-24T18:55:59.863Z,8.14
2022-11-24T18:58:28.147Z,8.15
2022-11-24T19:00:54.922Z,8.18
2022-11-24T19:03:22.965Z,8.21
2022-11-24T19:05:49.677Z,8.13
2022-11-24T19:08:16.414Z,8.10
2022-11-24T19:10:45.510Z,8.03
2022-11-24T19:13:12.189Z,8.00
2022-11-24T19:15:38.736Z,7.94
2022-11-24T19:18:05.638Z,7.88
2022-11-24T19:20:35.070Z,7.85
2022-11-24T19:23:02.019Z,7.76
2022-11-24T19:25:28.561Z,7.76
2022-11-24T19:27:55.322Z,7.72
2022-11-24T19:30:21.995Z,7.76
2022-11-24T19:32:48.650Z,7.75
2022-11-24T19:35:15.297Z,7.80
2022-11-24T19:37:43.337Z,7.73
2022-11-24T19:40:10.626Z,7.78
2022-11-24T19:42:37.315Z,7.80
2022-11-24T19:45:04.780Z,7.79
2022-11-24T19:47:31.436Z,7.74
2022-11-24T19:49:58.052Z,7.71
2022-11-24T19:52:25.126Z,7.67
2022-11-24T19:54:53.052Z,7.65
2022-11-24T19:57:19.723Z,7.62
2022-11-24T19:59:46.249Z,7.59
2022-11-24T20:02:13.052Z,7.55
2022-11-24T20:04:39.694Z,7.57
2022-11-24T20:07:06.318Z,7.55
2022-11-24T20:09:32.881Z,7.55
2022-11-24T20:12:01.002Z,7.57
2022-11-24T20:14:27.757Z,7.54
2022-11-24T20:16:54.510Z,7.56
2022-11-24T20:19:21.225Z,7.63
2022-11-24T20:21:47.861Z,7.59
2022-11-24T20:24:17.060Z,7.59
2022-11-24T20:26:45.843Z,7.59
2022-11-24T20:29:14.864Z,7.57
2022-11-24T20:31:43.629Z,7.55
2022-11-24T20:34:10.951Z,7.56
2022-11-24T20:36:39.563Z,7.54
2022-11-24T20:39:08.776Z,7.49
2022-11-24T20:41:36.669Z,7.51
2022-11-24T20:44:05.673Z,7.46
2022-11-24T20:46:36.738Z,7.49
2022-11-24T20:49:04.560Z,7.47
2022-11-24T20:51:33.645Z,7.51
2022-11-24T20:54:02.699Z,7.51
2022-11-24T20:56:31.383Z,7.55
2022-11-24T20:58:58.541Z,7.61
2022-11-24T21:01:27.844Z,7.67
2022-11-24T21:03:57.827Z,7.73
2022-11-24T21:06:25.098Z,7.78
2022-11-24T21:08:51.739Z,7.80
2022-11-24T21:11:19.203Z,7.88
2022-11-24T21:13:46.811Z,7.95
2022-11-24T21:16:15.259Z,7.99
2022-11-24T21:18:42.165Z,8.03
2022-11-24T21:21:10.694Z,8.08
2022-11-24T21:23:37.456Z,8.14
2022-11-24T21:26:07.447Z,8.17
2022-11-24T21:28:37.860Z,8.21
2022-11-24T21:31:05.133Z,8.24
2022-11-24T21:33:31.796Z,8.26
2022-11-24T21:36:01.161Z,8.26
2022-11-24T21:38:29.524Z,8.34
2022-11-24T21:40:59.412Z,8.34
2022-11-24T21:43:27.333Z,8.36
2022-11-24T21:45:53.976Z,8.35
2022-11-24T21:48:20.700Z,8.37
2022-11-24T21:50:47.297Z,8.38
2022-11-24T21:53:13.937Z,8.39
2022-11-24T21:55:41.851Z,8.41
2022-11-24T21:58:08.479Z,8.40
2022-11-24T22:00:35.217Z,8.39
2022-11-24T22:03:01.776Z,8.37
2022-11-24T22:05:28.491Z,8.36
2022-11-24T22:07:55.114Z,8.34
2022-11-24T22:10:21.709Z,8.33
2022-11-24T22:12:49.740Z,8.28
2022-11-24T22:15:16.601Z,8.22
2022-11-24T22:17:43.146Z,8.17
2022-11-24T22:20:10.394Z,8.14
2022-11-24T22:22:37.059Z,8.14
2022-11-24T22:25:04.348Z,8.10
2022-11-24T22:27:30.993Z,8.06
2022-11-24T22:29:59.065Z,8.04
2022-11-24T22:32:25.652Z,8.07
2022-11-24T22:34:52.228Z,8.09
2022-11-24T22:37:18.804Z,8.15
2022-11-24T22:39:45.436Z,8.21
2022-11-24T22:42:12.074Z,8.26
2022-11-24T22:44:38.744Z,8.32
2022-11-24T22:47:06.712Z,8.35
2022-11-24T22:49:33.341Z,8.40
2022-11-24T22:51:59.938Z,8.44
2022-11-24T22:54:30.078Z,8.47
2022-11-24T22:56:56.627Z,8.48
2022-11-24T22:59:23.351Z,8.52
2022-11-24T23:01:50.010Z,8.53
2022-11-24T23:04:18.084Z,8.54
2022-11-24T23:06:44.762Z,8.58
2022-11-24T23:09:11.816Z,8.57
2022-11-24T23:11:39.869Z,8.58
2022-11-24T23:14:08.151Z,8.63
2022-11-24T23:16:34.897Z,8.66
2022-11-24T23:19:01.576Z,8.67
2022-11-24T23:21:31.460Z,8.70
2022-11-24T23:23:59.099Z,8.71
2022-11-24T23:26:27.497Z,8.75
2022-11-24T23:28:54.778Z,8.74
2022-11-24T23:31:23.447Z,8.76
2022-11-24T23:33:50.586Z,8.80
2022-11-24T23:36:19.588Z,8.81
2022-11-24T23:38:48.341Z,8.85
2022-11-24T23:41:16.349Z,8.83
2022-11-24T23:43:43.194Z,8.90
2022-11-24T23:46:11.409Z,8.94
2022-11-24T23:48:39.137Z,9.02
2022-11-24T23:51:07.083Z,9.06
2022-11-24T23:53:34.545Z,9.11
2022-11-24T23:56:03.222Z,9.11
2022-11-24T23:58:30.615Z,9.15
